Time;durP1;ratioP1;P1;durP2;ratioP2;P2;SDS_P1;SDS_P2;PMS_P1;PMS_P2;Temp;Humidity;BMP_temperature;BMP_pressure;BME280_temperature;BME280_humidity;BME280_pressure;Samples;Min_cycle;Max_cycle;Signal;HPM_P1;HPM_P2
2023/05/14 00:02:14;;;;;;;13.57;12.13;;;10.60;99.90;;;;;;5114258;27;20388;-89
2023/05/14 00:04:39;;;;;;;14.17;12.67;;;10.60;99.90;;;;;;5116971;27;20413;-90
2023/05/14 00:07:05;;;;;;;15.10;13.52;;;10.60;99.90;;;;;;5117790;27;20409;-89
2023/05/14 00:09:31;;;;;;;14.97;12.73;;;10.60;99.90;;;;;;5115781;27;20393;-90
2023/05/14 00:11:57;;;;;;;15.63;13.33;;;10.80;99.90;;;;;;5117676;27;20478;-89
2023/05/14 00:14:23;;;;;;;17.90;14.70;;;10.60;99.90;;;;;;5115708;27;20811;-90
2023/05/14 00:16:49;;;;;;;18.35;16.40;;;10.50;99.90;;;;;;5117562;27;20492;-90
2023/05/14 00:19:15;;;;;;;15.05;13.55;;;10.50;99.90;;;;;;5115923;27;20760;-89
2023/05/14 00:21:40;;;;;;;15.73;14.07;;;10.50;99.90;;;;;;5117408;27;20409;-89
2023/05/14 00:24:07;;;;;;;16.70;14.80;;;10.50;99.90;;;;;;5116247;27;20397;-88
2023/05/14 00:26:33;;;;;;;17.70;15.63;;;10.50;99.90;;;;;;5116004;27;20955;-91
2023/05/14 00:28:59;;;;;;;16.40;14.48;;;10.50;99.90;;;;;;5117638;27;20425;-89
2023/05/14 00:31:24;;;;;;;16.63;14.77;;;10.50;99.90;;;;;;5115109;27;20417;-89
2023/05/14 00:33:50;;;;;;;18.03;16.07;;;10.50;99.90;;;;;;5117188;27;20393;-90
2023/05/14 00:36:15;;;;;;;17.65;15.77;;;10.60;99.90;;;;;;5115025;27;20812;-89
2023/05/14 00:38:41;;;;;;;19.53;16.37;;;10.50;99.90;;;;;;5116940;27;20397;-89
2023/05/14 00:41:07;;;;;;;16.42;14.63;;;10.50;99.90;;;;;;5115584;27;20445;-89
2023/05/14 00:43:32;;;;;;;20.93;16.63;;;10.40;99.90;;;;;;5117011;27;20436;-90
2023/05/14 00:45:59;;;;;;;16.30;14.13;;;10.40;99.90;;;;;;5117061;27;20404;-90
2023/05/14 00:48:24;;;;;;;18.83;14.98;;;10.40;99.90;;;;;;5114679;27;20405;-90
2023/05/14 00:50:51;;;;;;;16.80;14.63;;;10.40;99.90;;;;;;5117034;27;20397;-90
2023/05/14 00:53:18;;;;;;;17.48;14.65;;;10.50;99.90;;;;;;5114642;27;20397;-90
2023/05/14 00:55:45;;;;;;;18.35;15.88;;;10.40;99.90;;;;;;5116752;27;20417;-90
2023/05/14 00:58:13;;;;;;;16.88;14.77;;;10.30;99.90;;;;;;5114787;27;20400;-89
2023/05/14 01:00:39;;;;;;;17.23;15.43;;;10.50;99.90;;;;;;5116392;27;20397;-89
2023/05/14 01:03:06;;;;;;;17.98;15.15;;;10.30;99.90;;;;;;5116004;27;20469;-89
2023/05/14 01:05:59;;;;;;;20.08;17.05;;;10.50;99.90;;;;;;5115520;27;20411;-90
2023/05/14 01:08:54;;;;;;;20.13;16.70;;;10.30;99.90;;;;;;5116480;27;20409;-90
2023/05/14 01:11:33;;;;;;;23.33;18.77;;;10.30;99.90;;;;;;5114277;27;20408;-89
2023/05/14 01:14:17;;;;;;;17.10;13.80;;;10.30;99.90;;;;;;5114242;27;20393;-89
2023/05/14 01:16:44;;;;;;;16.10;13.40;;;10.30;99.90;;;;;;5116085;27;20408;-90
2023/05/14 01:19:20;;;;;;;18.02;14.65;;;10.30;99.90;;;;;;5114418;27;20389;-90
2023/05/14 01:21:46;;;;;;;19.23;15.63;;;10.20;99.90;;;;;;5116083;27;20401;-90
2023/05/14 01:24:12;;;;;;;18.60;16.53;;;10.20;99.90;;;;;;5110670;27;20498;-89
2023/05/14 01:26:37;;;;;;;19.52;16.25;;;10.20;99.90;;;;;;5112454;27;20402;-89
2023/05/14 01:29:12;;;;;;;17.80;15.13;;;10.20;99.90;;;;;;5111831;27;20402;-90
2023/05/14 01:31:41;;;;;;;19.70;15.50;;;10.10;99.90;;;;;;5110741;27;20652;-89
2023/05/14 01:34:08;;;;;;;21.42;15.82;;;10.00;99.90;;;;;;5112521;27;20399;-90
2023/05/14 01:36:34;;;;;;;21.33;16.50;;;10.30;99.90;;;;;;5110109;27;20514;-88
2023/05/14 01:39:02;;;;;;;16.50;14.40;;;10.00;99.90;;;;;;5112700;27;20489;-89
2023/05/14 01:41:29;;;;;;;17.23;13.65;;;10.00;99.90;;;;;;5110322;27;20460;-90
2023/05/14 01:43:56;;;;;;;18.90;15.80;;;10.00;99.90;;;;;;5111890;27;20397;-89
2023/05/14 01:46:23;;;;;;;21.92;18.02;;;10.00;99.90;;;;;;5111506;27;20406;-89
2023/05/14 01:48:49;;;;;;;19.95;16.20;;;10.00;99.90;;;;;;5110728;27;20407;-91
2023/05/14 01:51:15;;;;;;;17.73;14.82;;;10.00;99.90;;;;;;5112342;27;20417;-90
2023/05/14 01:53:40;;;;;;;24.97;18.83;;;10.00;99.90;;;;;;5110240;27;20407;-90
2023/05/14 01:56:06;;;;;;;28.58;18.60;;;10.00;99.90;;;;;;5111785;27;20406;-89
2023/05/14 01:58:32;;;;;;;25.30;18.77;;;10.00;99.90;;;;;;5109912;27;20464;-90
2023/05/14 02:00:57;;;;;;;22.60;17.65;;;10.00;99.90;;;;;;5112366;27;20398;-89
2023/05/14 02:03:23;;;;;;;22.92;18.98;;;10.00;99.90;;;;;;5110355;27;20399;-90
2023/05/14 02:05:48;;;;;;;27.57;19.90;;;10.00;99.90;;;;;;5111577;27;20407;-89
2023/05/14 02:08:14;;;;;;;21.90;17.08;;;10.00;99.90;;;;;;5111621;27;20471;-89
2023/05/14 02:10:40;;;;;;;21.60;16.97;;;10.00;99.90;;;;;;5109863;27;20403;-90
2023/05/14 02:13:05;;;;;;;22.77;16.83;;;10.10;99.90;;;;;;5111910;27;20908;-90
2023/05/14 02:15:31;;;;;;;21.52;15.80;;;10.10;99.90;;;;;;5109536;27;20502;-90
2023/05/14 02:17:56;;;;;;;22.47;17.70;;;10.10;99.90;;;;;;5112035;27;20403;-89
2023/05/14 02:20:22;;;;;;;26.02;18.58;;;10.10;99.90;;;;;;5109498;27;20395;-90
2023/05/14 02:22:48;;;;;;;23.10;17.97;;;10.10;99.90;;;;;;5111671;27;20753;-90
2023/05/14 02:25:13;;;;;;;24.33;18.35;;;10.10;99.90;;;;;;5109680;28;20450;-89
2023/05/14 02:27:39;;;;;;;25.70;18.80;;;10.10;99.90;;;;;;5110396;27;20891;-89
2023/05/14 02:30:05;;;;;;;19.95;16.02;;;10.00;99.90;;;;;;5111586;27;20403;-89
2023/05/14 02:32:31;;;;;;;19.90;16.65;;;10.00;99.90;;;;;;5109419;27;20490;-90
2023/05/14 02:34:56;;;;;;;20.38;17.20;;;10.00;99.90;;;;;;5111410;27;20513;-89
2023/05/14 02:37:22;;;;;;;29.97;20.80;;;10.00;99.90;;;;;;5109654;27;20399;-90
2023/05/14 02:39:48;;;;;;;21.05;17.67;;;10.00;99.90;;;;;;5111431;27;20503;-90
2023/05/14 02:42:13;;;;;;;24.88;18.58;;;10.00;99.90;;;;;;5109616;27;20403;-90
2023/05/14 02:44:39;;;;;;;24.17;18.30;;;10.00;99.90;;;;;;5110661;27;20497;-90
2023/05/14 02:47:05;;;;;;;29.85;20.88;;;10.00;99.90;;;;;;5110973;27;20746;-90
2023/05/14 02:49:31;;;;;;;24.98;16.60;;;10.20;99.90;;;;;;5109578;27;20410;-90
2023/05/14 02:51:57;;;;;;;25.53;18.90;;;10.10;99.90;;;;;;5110788;27;20409;-90
2023/05/14 02:54:22;;;;;;;21.20;16.00;;;10.00;99.90;;;;;;5108955;27;20448;-89
2023/05/14 02:56:48;;;;;;;27.20;18.90;;;10.00;99.90;;;;;;5110981;27;20761;-91
2023/05/14 02:59:14;;;;;;;22.08;17.77;;;10.10;99.90;;;;;;5108811;27;20398;-89
2023/05/14 03:01:39;;;;;;;21.93;16.40;;;10.10;99.90;;;;;;5111121;27;20411;-90
2023/05/14 03:04:05;;;;;;;28.70;18.08;;;10.10;99.90;;;;;;5109671;27;20528;-89
2023/05/14 03:06:30;;;;;;;25.00;16.63;;;10.10;99.90;;;;;;5109601;27;20431;-90
2023/05/14 03:08:56;;;;;;;24.02;16.55;;;10.10;99.90;;;;;;5110750;27;20402;-90
2023/05/14 03:11:22;;;;;;;23.97;15.70;;;10.00;99.90;;;;;;5109090;27;20489;-90
2023/05/14 03:13:47;;;;;;;28.73;16.73;;;10.10;99.90;;;;;;5110921;27;20391;-90
2023/05/14 03:16:13;;;;;;;28.17;17.25;;;10.10;99.90;;;;;;5108538;27;20418;-89
2023/05/14 03:18:38;;;;;;;28.27;16.87;;;10.10;99.90;;;;;;5110790;27;20946;-89
2023/05/14 03:21:04;;;;;;;28.42;16.77;;;10.10;99.90;;;;;;5109039;27;20888;-89
2023/05/14 03:23:33;;;;;;;25.93;16.23;;;10.10;99.90;;;;;;5110299;27;20399;-90
2023/05/14 03:26:00;;;;;;;22.93;14.60;;;10.20;99.90;;;;;;5113289;27;20927;-89
2023/05/14 03:28:25;;;;;;;21.73;13.52;;;10.00;99.90;;;;;;5112383;27;20458;-92
2023/05/14 03:30:51;;;;;;;28.27;16.07;;;10.00;99.90;;;;;;5113867;27;20396;-90
2023/05/14 03:33:17;;;;;;;22.17;14.25;;;10.00;99.90;;;;;;5111623;27;20399;-90
2023/05/14 03:35:42;;;;;;;22.83;14.43;;;10.00;99.90;;;;;;5113878;27;20504;-89
2023/05/14 03:38:08;;;;;;;28.30;17.13;;;10.00;99.90;;;;;;5111282;27;20795;-89
2023/05/14 03:40:33;;;;;;;31.88;18.15;;;10.00;99.90;;;;;;5113621;27;20732;-90
2023/05/14 03:42:59;;;;;;;27.33;16.90;;;10.00;99.90;;;;;;5112425;27;20906;-88
2023/05/14 03:45:27;;;;;;;26.15;16.45;;;10.00;99.90;;;;;;5112541;27;20428;-90
2023/05/14 03:47:53;;;;;;;33.97;18.48;;;10.00;99.90;;;;;;5113231;27;20404;-90
2023/05/14 03:50:18;;;;;;;34.57;19.87;;;10.00;99.90;;;;;;5111512;27;20405;-90
2023/05/14 03:52:44;;;;;;;28.38;18.48;;;10.00;99.90;;;;;;5113817;27;20393;-90
2023/05/14 03:55:10;;;;;;;35.50;21.00;;;10.00;99.90;;;;;;5111017;27;20497;-90
2023/05/14 03:57:36;;;;;;;36.15;21.15;;;10.00;99.90;;;;;;5114111;27;20963;-90
2023/05/14 04:00:06;;;;;;;34.90;20.77;;;9.90;99.90;;;;;;5112019;27;20453;-89
2023/05/14 04:02:32;;;;;;;39.37;22.47;;;10.00;99.90;;;;;;5113128;27;20443;-90
2023/05/14 04:04:57;;;;;;;40.97;22.50;;;10.00;99.90;;;;;;5113250;27;20451;-91
2023/05/14 04:07:23;;;;;;;41.25;23.17;;;10.10;99.90;;;;;;5112332;27;20448;-90
2023/05/14 04:09:48;;;;;;;40.17;22.47;;;10.10;99.90;;;;;;5113585;27;20409;-90
2023/05/14 04:12:14;;;;;;;40.25;22.92;;;10.10;99.90;;;;;;5111603;27;20682;-90
2023/05/14 04:14:40;;;;;;;36.00;21.07;;;10.20;99.90;;;;;;5113409;27;20532;-89
2023/05/14 04:17:05;;;;;;;37.80;22.45;;;10.20;99.90;;;;;;5111348;27;20436;-89
2023/05/14 04:19:31;;;;;;;33.97;21.87;;;10.30;99.90;;;;;;5113530;27;20400;-89
2023/05/14 04:21:56;;;;;;;38.03;21.53;;;10.40;99.90;;;;;;5112379;27;20389;-89
2023/05/14 04:24:22;;;;;;;40.05;22.08;;;10.70;99.90;;;;;;5108886;28;20409;-90
2023/05/14 04:26:48;;;;;;;40.97;22.20;;;10.40;99.90;;;;;;5109843;28;20402;-89
2023/05/14 04:29:13;;;;;;;40.33;22.45;;;10.50;99.90;;;;;;5108416;28;20407;-89
2023/05/14 04:31:39;;;;;;;33.30;21.03;;;10.50;99.90;;;;;;5109845;28;20414;-89
2023/05/14 04:34:04;;;;;;;36.13;21.98;;;10.60;99.90;;;;;;5107767;28;20465;-91
2023/05/14 04:36:30;;;;;;;31.90;19.00;;;10.60;99.90;;;;;;5109988;28;20477;-92
2023/05/14 04:38:56;;;;;;;29.15;17.35;;;10.90;99.90;;;;;;5108108;28;20492;-90
2023/05/14 04:41:21;;;;;;;35.85;17.48;;;10.80;99.90;;;;;;5109580;28;20463;-91
2023/05/14 04:43:49;;;;;;;29.53;15.97;;;10.80;99.90;;;;;;5109402;28;20467;-91
2023/05/14 04:46:15;;;;;;;26.88;15.15;;;10.90;99.90;;;;;;5108513;28;20409;-91
2023/05/14 04:48:41;;;;;;;26.85;15.82;;;11.20;99.90;;;;;;5110552;27;20489;-89
2023/05/14 04:51:06;;;;;;;28.07;15.07;;;11.10;99.90;;;;;;5111349;27;20458;-90
2023/05/14 04:53:32;;;;;;;29.73;16.45;;;11.20;99.90;;;;;;5113433;27;20386;-90
2023/05/14 04:55:57;;;;;;;26.37;15.40;;;11.10;99.90;;;;;;5111237;27;20491;-91
2023/05/14 04:58:23;;;;;;;27.90;15.38;;;11.20;99.90;;;;;;5113451;27;20471;-92
2023/05/14 05:00:49;;;;;;;29.20;15.05;;;11.20;99.90;;;;;;5112032;27;20406;-90
2023/05/14 05:03:15;;;;;;;26.10;14.27;;;11.20;99.90;;;;;;5112048;27;20402;-90
2023/05/14 05:05:40;;;;;;;24.20;15.17;;;11.30;99.90;;;;;;5113119;27;20414;-89
2023/05/14 05:08:06;;;;;;;24.48;14.98;;;11.30;99.90;;;;;;5128331;27;20426;-89
2023/05/14 05:10:32;;;;;;;28.67;14.40;;;11.60;99.90;;;;;;5112980;27;20395;-90
2023/05/14 05:12:57;;;;;;;24.45;14.23;;;11.40;99.90;;;;;;5110793;27;20494;-90
2023/05/14 05:15:23;;;;;;;23.80;13.60;;;11.40;99.90;;;;;;5112964;27;20766;-89
2023/05/14 05:17:49;;;;;;;25.60;14.98;;;11.40;99.90;;;;;;5110827;27;20463;-89
2023/05/14 05:20:14;;;;;;;27.40;15.25;;;11.40;99.90;;;;;;5113037;27;20746;-90
2023/05/14 05:22:40;;;;;;;25.57;15.10;;;11.50;99.90;;;;;;5111904;27;20399;-89
2023/05/14 05:25:07;;;;;;;24.75;13.80;;;11.70;99.90;;;;;;5111321;27;20940;-91
2023/05/14 05:27:33;;;;;;;20.77;13.40;;;11.70;99.90;;;;;;5112559;27;20407;-89
2023/05/14 05:30:01;;;;;;;24.98;13.80;;;11.80;99.90;;;;;;5110787;27;20395;-90
2023/05/14 05:32:26;;;;;;;24.77;13.97;;;11.80;99.90;;;;;;5112451;27;20403;-91
2023/05/14 05:34:52;;;;;;;21.25;13.10;;;11.90;99.90;;;;;;5110378;27;20521;-89
2023/05/14 05:37:18;;;;;;;22.45;13.48;;;12.00;99.90;;;;;;5112055;27;20789;-90
2023/05/14 05:39:43;;;;;;;23.93;13.70;;;12.10;99.90;;;;;;5111624;27;20908;-90
2023/05/14 05:42:09;;;;;;;21.65;12.98;;;12.20;99.90;;;;;;5111806;27;20402;-90
2023/05/14 05:44:35;;;;;;;20.13;12.20;;;12.20;99.90;;;;;;5112185;27;20399;-90
2023/05/14 05:47:00;;;;;;;19.48;12.32;;;12.20;99.90;;;;;;5110470;27;20407;-90
2023/05/14 05:49:26;;;;;;;19.85;12.32;;;12.20;99.90;;;;;;5112207;27;20387;-90
2023/05/14 05:51:51;;;;;;;21.13;12.37;;;12.20;99.90;;;;;;5110450;27;20403;-91
2023/05/14 05:54:17;;;;;;;20.13;12.70;;;12.10;99.90;;;;;;5112093;27;21025;-91
2023/05/14 05:56:43;;;;;;;22.77;13.30;;;12.20;99.90;;;;;;5110386;27;20446;-89
2023/05/14 05:59:08;;;;;;;20.35;12.45;;;12.40;99.90;;;;;;5112081;27;20928;-91
2023/05/14 06:01:34;;;;;;;18.80;13.20;;;12.70;99.90;;;;;;5111430;27;20399;-89
2023/05/14 06:04:00;;;;;;;22.30;13.10;;;12.60;99.90;;;;;;5110860;27;20397;-90
2023/05/14 06:06:25;;;;;;;22.42;13.65;;;12.50;99.90;;;;;;5112280;27;20494;-90
2023/05/14 06:08:51;;;;;;;22.13;13.43;;;12.40;99.90;;;;;;5110184;27;20390;-88
2023/05/14 06:11:16;;;;;;;20.38;13.80;;;12.50;99.90;;;;;;5111939;27;20411;-90
2023/05/14 06:13:42;;;;;;;24.30;14.70;;;12.60;99.90;;;;;;5109696;27;20407;-90
2023/05/14 06:16:09;;;;;;;21.83;14.77;;;12.70;99.90;;;;;;5111617;27;20418;-90
2023/05/14 06:18:34;;;;;;;24.92;14.18;;;13.10;99.90;;;;;;5110317;27;20783;-91
2023/05/14 06:21:00;;;;;;;22.25;13.75;;;13.00;99.90;;;;;;5111326;27;20426;-91
2023/05/14 06:23:25;;;;;;;20.40;12.87;;;12.90;99.90;;;;;;5111467;27;20394;-89
2023/05/14 06:25:51;;;;;;;21.85;13.63;;;13.20;99.90;;;;;;5110184;27;20498;-91
2023/05/14 06:28:17;;;;;;;26.52;13.38;;;13.00;99.90;;;;;;5111220;27;20822;-89
2023/05/14 06:30:43;;;;;;;23.33;13.13;;;13.10;99.90;;;;;;5109471;27;20871;-91
2023/05/14 06:33:08;;;;;;;22.20;12.40;;;13.20;99.90;;;;;;5111838;27;20433;-90
2023/05/14 06:35:34;;;;;;;23.80;12.73;;;13.20;99.90;;;;;;5109494;27;20952;-89
2023/05/14 06:37:59;;;;;;;23.05;13.10;;;13.30;99.90;;;;;;5111715;27;20406;-91
2023/05/14 06:40:25;;;;;;;26.03;13.40;;;13.40;99.90;;;;;;5110278;27;20434;-91
2023/05/14 06:42:51;;;;;;;24.90;11.77;;;13.50;99.90;;;;;;5110737;27;21035;-91
2023/05/14 06:45:16;;;;;;;20.77;11.73;;;13.70;99.90;;;;;;5111153;27;20402;-90
2023/05/14 06:47:42;;;;;;;18.50;10.67;;;13.90;99.90;;;;;;5109541;27;20405;-90
2023/05/14 06:50:08;;;;;;;18.90;9.77;;;14.00;99.90;;;;;;5111328;27;20402;-90
2023/05/14 06:52:34;;;;;;;20.10;9.97;;;14.10;99.90;;;;;;5109333;27;20398;-91
2023/05/14 06:54:59;;;;;;;19.77;10.00;;;14.10;99.90;;;;;;5111011;28;20426;-91
2023/05/14 06:57:25;;;;;;;18.95;9.38;;;14.10;99.90;;;;;;5109238;27;20391;-90
2023/05/14 06:59:51;;;;;;;18.80;10.03;;;14.20;99.90;;;;;;5110652;27;20467;-91
2023/05/14 07:02:16;;;;;;;17.50;9.45;;;14.40;99.90;;;;;;5110800;27;20521;-90
2023/05/14 07:04:42;;;;;;;19.30;9.33;;;14.50;99.90;;;;;;5109611;27;20406;-90
2023/05/14 07:07:09;;;;;;;18.30;9.70;;;14.90;99.90;;;;;;5110676;27;20402;-89
2023/05/14 07:09:35;;;;;;;19.00;9.77;;;14.70;99.90;;;;;;5109045;27;20439;-91
2023/05/14 07:12:00;;;;;;;18.65;9.55;;;14.90;99.90;;;;;;5110337;27;20434;-89
2023/05/14 07:14:26;;;;;;;18.23;8.63;;;14.80;99.90;;;;;;5108459;27;20738;-91
2023/05/14 07:16:52;;;;;;;17.00;9.02;;;14.80;99.90;;;;;;5110622;28;20411;-90
2023/05/14 07:19:17;;;;;;;17.03;8.57;;;14.90;99.90;;;;;;5109203;27;20447;-90
2023/05/14 07:21:43;;;;;;;15.63;7.55;;;15.10;99.90;;;;;;5109850;27;20402;-90
2023/05/14 07:24:08;;;;;;;15.83;7.80;;;15.10;99.90;;;;;;5110215;27;20886;-90
2023/05/14 07:26:34;;;;;;;12.70;6.75;;;15.20;99.90;;;;;;5108813;27;20408;-91
2023/05/14 07:28:59;;;;;;;16.13;7.00;;;15.40;99.90;;;;;;5110909;27;20411;-91
2023/05/14 07:31:25;;;;;;;17.25;7.30;;;15.70;99.90;;;;;;5108448;28;20447;-90
2023/05/14 07:33:51;;;;;;;16.67;7.13;;;15.90;99.90;;;;;;5110628;28;20419;-90
2023/05/14 07:36:17;;;;;;;16.17;6.95;;;16.00;99.90;;;;;;5108480;28;20430;-89
2023/05/14 07:38:42;;;;;;;12.32;6.18;;;16.20;99.90;;;;;;5110731;28;20394;-91
2023/05/14 07:41:10;;;;;;;14.27;6.80;;;16.20;99.90;;;;;;5109810;28;20406;-92
2023/05/14 07:43:37;;;;;;;13.30;6.20;;;16.40;99.90;;;;;;5109644;28;20748;-91
2023/05/14 07:46:02;;;;;;;15.43;6.77;;;16.60;99.90;;;;;;5110547;28;20402;-91
2023/05/14 07:48:28;;;;;;;14.37;6.90;;;16.60;99.90;;;;;;5108195;28;20398;-91
2023/05/14 07:50:54;;;;;;;11.20;5.67;;;16.80;99.90;;;;;;5110519;28;20451;-91
2023/05/14 07:53:20;;;;;;;15.47;6.60;;;16.70;99.90;;;;;;5108050;28;20460;-91
2023/05/14 07:55:48;;;;;;;12.30;5.97;;;16.90;99.90;;;;;;5110409;28;20422;-91
2023/05/14 07:58:13;;;;;;;14.85;6.55;;;16.70;99.90;;;;;;5108957;28;20430;-89
2023/05/14 08:00:39;;;;;;;14.47;6.37;;;17.20;99.90;;;;;;5110053;28;20483;-91
2023/05/14 08:03:05;;;;;;;11.32;5.78;;;17.00;99.90;;;;;;5109995;28;20967;-90
2023/05/14 08:05:31;;;;;;;11.82;6.35;;;17.10;99.90;;;;;;5108385;28;20402;-90
2023/05/14 08:07:57;;;;;;;11.95;5.93;;;16.60;99.90;;;;;;5110522;28;20406;-91
2023/05/14 08:10:23;;;;;;;12.98;6.10;;;16.70;99.90;;;;;;5108126;28;20399;-90
2023/05/14 08:12:49;;;;;;;10.93;5.33;;;16.80;99.90;;;;;;5110584;28;20402;-92
2023/05/14 08:15:15;;;;;;;13.45;5.10;;;17.00;99.90;;;;;;5107978;28;20924;-90
2023/05/14 08:17:40;;;;;;;11.55;5.93;;;17.20;99.90;;;;;;5110066;28;20407;-91
2023/05/14 08:20:06;;;;;;;10.37;5.30;;;17.80;99.90;;;;;;5109689;28;20926;-91
2023/05/14 08:22:32;;;;;;;9.93;5.00;;;17.80;99.90;;;;;;5108847;28;20387;-90
2023/05/14 08:24:59;;;;;;;12.87;5.37;;;17.70;99.90;;;;;;5112768;27;20457;-90
2023/05/14 08:27:26;;;;;;;9.10;4.70;;;17.80;99.90;;;;;;5112068;27;20437;-90
2023/05/14 08:29:51;;;;;;;12.73;5.00;;;17.90;99.90;;;;;;5114051;27;20398;-91
2023/05/14 08:32:17;;;;;;;12.53;4.80;;;18.10;99.90;;;;;;5112063;27;20413;-91
2023/05/14 08:34:42;;;;;;;10.33;5.13;;;18.30;99.90;;;;;;5113981;27;20398;-90
2023/05/14 08:37:08;;;;;;;9.70;4.55;;;18.30;99.90;;;;;;5112473;27;20486;-90
2023/05/14 08:39:34;;;;;;;12.60;5.00;;;18.20;99.90;;;;;;5113232;27;20447;-90
2023/05/14 08:42:00;;;;;;;11.20;5.00;;;18.10;99.90;;;;;;5113417;27;20407;-91
2023/05/14 08:44:52;;;;;;;9.93;5.00;;;18.10;99.90;;;;;;5112121;27;20541;-91
2023/05/14 08:47:20;;;;;;;10.68;4.35;;;18.30;99.90;;;;;;5113810;27;20473;-92
2023/05/14 08:49:51;;;;;;;10.38;5.03;;;18.40;99.90;;;;;;5111933;27;20395;-90
2023/05/14 08:52:18;;;;;;;9.60;4.77;;;18.80;99.90;;;;;;5113530;27;20406;-91
2023/05/14 08:54:45;;;;;;;11.18;4.93;;;18.80;99.90;;;;;;5112439;27;20394;-91
2023/05/14 08:57:11;;;;;;;10.70;4.72;;;19.10;99.90;;;;;;5112434;27;20428;-91
2023/05/14 08:59:37;;;;;;;10.10;4.15;;;19.20;99.90;;;;;;5113836;27;20399;-91
2023/05/14 09:02:05;;;;;;;10.10;4.83;;;19.00;99.90;;;;;;5111701;27;20434;-91
2023/05/14 09:04:31;;;;;;;9.23;4.60;;;19.10;99.90;;;;;;5113487;27;20390;-93
2023/05/14 09:07:00;;;;;;;9.75;4.95;;;19.20;99.90;;;;;;5111026;27;20941;-90
2023/05/14 09:09:26;;;;;;;12.15;4.68;;;19.30;99.90;;;;;;5113168;27;20482;-90
2023/05/14 09:11:52;;;;;;;11.15;4.88;;;19.80;99.90;;;;;;5111605;27;20409;-91
2023/05/14 09:14:19;;;;;;;10.02;4.53;;;19.70;99.90;;;;;;5112924;27;20797;-91
2023/05/14 09:16:46;;;;;;;13.07;5.40;;;19.40;99.90;;;;;;5112892;27;20426;-91
2023/05/14 09:19:12;;;;;;;10.40;5.10;;;19.30;99.90;;;;;;5111385;27;20486;-90
2023/05/14 09:21:39;;;;;;;10.00;5.10;;;19.10;99.90;;;;;;5112909;27;20394;-90
2023/05/14 09:24:05;;;;;;;10.80;4.97;;;19.10;99.90;;;;;;5110534;27;20803;-91
2023/05/14 09:26:33;;;;;;;10.32;5.07;;;19.00;99.90;;;;;;5112823;27;20399;-90
2023/05/14 09:29:02;;;;;;;10.60;5.25;;;19.30;99.90;;;;;;5128429;27;20436;-90
2023/05/14 09:31:33;;;;;;;11.00;5.27;;;19.60;99.90;;;;;;5112640;27;20494;-91
2023/05/14 09:33:59;;;;;;;11.32;4.78;;;19.80;99.90;;;;;;5112188;27;20411;-90
2023/05/14 09:36:26;;;;;;;10.43;5.35;;;20.00;99.90;;;;;;5110583;27;20423;-92
2023/05/14 09:39:03;;;;;;;9.57;4.57;;;19.90;99.90;;;;;;5113135;27;20390;-92
2023/05/14 09:41:29;;;;;;;10.68;5.43;;;19.90;99.90;;;;;;5110245;27;20398;-93
2023/05/14 09:43:56;;;;;;;9.73;4.63;;;20.10;99.90;;;;;;5112533;27;20409;-92
2023/05/14 09:46:22;;;;;;;9.80;4.82;;;20.40;99.90;;;;;;5110764;27;20804;-92
2023/05/14 09:48:48;;;;;;;11.32;4.93;;;20.70;99.90;;;;;;5111836;27;20893;-91
2023/05/14 09:51:19;;;;;;;11.27;4.68;;;20.80;99.90;;;;;;5112112;27;20481;-90
2023/05/14 09:53:45;;;;;;;9.18;4.15;;;21.10;99.90;;;;;;5110255;27;20409;-91
2023/05/14 09:56:11;;;;;;;10.65;5.13;;;21.40;99.90;;;;;;5112529;27;20426;-91
2023/05/14 09:58:37;;;;;;;11.03;5.17;;;21.50;98.50;;;;;;5110312;27;20418;-91
2023/05/14 10:01:04;;;;;;;10.40;4.40;;;21.60;99.90;;;;;;5112589;27;20903;-91
2023/05/14 10:03:29;;;;;;;11.23;4.63;;;21.90;99.30;;;;;;5109903;27;20405;-91
2023/05/14 10:06:04;;;;;;;11.97;5.23;;;22.10;96.40;;;;;;5112171;27;20893;-92
2023/05/14 10:08:34;;;;;;;8.52;4.68;;;22.30;94.00;;;;;;5111888;27;20831;-92
2023/05/14 10:11:03;;;;;;;7.78;4.10;;;22.20;91.40;;;;;;5110351;27;20408;-93
2023/05/14 10:13:35;;;;;;;9.85;4.57;;;22.30;93.90;;;;;;5112340;27;20430;-92
2023/05/14 10:16:10;;;;;;;7.50;4.50;;;22.60;88.20;;;;;;5109817;27;20945;-91
2023/05/14 10:18:41;;;;;;;7.15;4.38;;;22.70;78.70;;;;;;5111706;27;20401;-92
2023/05/14 10:21:07;;;;;;;9.25;4.70;;;22.70;86.20;;;;;;5110349;27;20403;-91
2023/05/14 10:23:36;;;;;;;9.13;4.20;;;22.90;81.10;;;;;;5111875;27;20769;-91
2023/05/14 10:26:03;;;;;;;10.27;4.97;;;23.00;88.20;;;;;;5115022;27;20401;-92
2023/05/14 10:28:29;;;;;;;9.40;5.20;;;23.20;74.30;;;;;;5112913;27;20404;-92
2023/05/14 10:30:55;;;;;;;9.37;6.07;;;23.40;65.20;;;;;;5114927;27;20400;-92
2023/05/14 10:33:20;;;;;;;8.15;5.30;;;23.50;62.90;;;;;;5112563;27;20907;-91
2023/05/14 10:35:53;;;;;;;8.80;5.27;;;23.50;62.20;;;;;;5115119;27;20459;-92
2023/05/14 10:38:22;;;;;;;7.63;4.72;;;23.70;69.60;;;;;;5113295;27;20409;-91
2023/05/14 10:40:48;;;;;;;10.15;5.47;;;23.80;65.50;;;;;;5114133;27;20479;-92
2023/05/14 10:43:16;;;;;;;7.38;5.15;;;24.00;64.00;;;;;;5114755;27;20476;-91
2023/05/14 10:45:43;;;;;;;9.98;5.97;;;24.10;66.70;;;;;;5112827;27;20405;-91
2023/05/14 10:48:09;;;;;;;9.23;5.82;;;24.20;64.70;;;;;;5114264;27;20392;-92
2023/05/14 10:50:35;;;;;;;9.80;5.90;;;24.70;67.20;;;;;;5112549;27;20389;-93
2023/05/14 10:53:01;;;;;;;9.68;6.10;;;25.20;61.30;;;;;;5114604;27;20409;-91
2023/05/14 10:55:27;;;;;;;7.95;5.18;;;25.50;52.30;;;;;;5112465;27;20409;-91
2023/05/14 10:57:53;;;;;;;6.77;5.53;;;25.90;57.70;;;;;;5114695;27;20994;-93
2023/05/14 11:00:19;;;;;;;9.02;6.22;;;26.20;53.60;;;;;;5113547;27;20477;-92
2023/05/14 11:02:45;;;;;;;6.95;5.10;;;26.20;49.50;;;;;;5113008;27;20899;-92
2023/05/14 11:05:14;;;;;;;9.85;5.05;;;26.00;53.80;;;;;;5114298;27;20483;-92
2023/05/14 11:07:43;;;;;;;7.63;5.72;;;25.80;52.70;;;;;;5112277;27;20404;-92
2023/05/14 11:10:11;;;;;;;8.05;5.60;;;25.90;53.00;;;;;;5114577;27;20404;-92
2023/05/14 11:12:39;;;;;;;9.18;5.50;;;26.00;55.50;;;;;;5112760;27;20457;-93
2023/05/14 11:15:27;;;;;;;7.32;4.93;;;26.30;52.40;;;;;;5113720;27;20413;-92
2023/05/14 11:17:53;;;;;;;9.88;5.47;;;26.40;51.80;;;;;;5113806;27;20400;-93
2023/05/14 11:20:19;;;;;;;9.07;6.20;;;26.40;51.30;;;;;;5112560;27;20393;-91
2023/05/14 11:22:47;;;;;;;9.27;5.65;;;26.50;51.00;;;;;;5114081;27;20399;-93
2023/05/14 11:25:13;;;;;;;8.48;5.30;;;26.40;52.20;;;;;;5111887;27;20457;-92
2023/05/14 11:27:41;;;;;;;8.93;5.10;;;26.70;51.10;;;;;;5114114;27;20449;-91
2023/05/14 11:30:18;;;;;;;7.22;5.28;;;26.90;52.30;;;;;;5113331;27;20393;-92
2023/05/14 11:32:45;;;;;;;7.97;5.90;;;27.10;50.40;;;;;;5113282;27;20429;-94
2023/05/14 11:35:12;;;;;;;8.80;5.57;;;26.60;46.60;;;;;;5131319;27;20894;-93
2023/05/14 11:37:37;;;;;;;8.65;5.50;;;26.50;52.60;;;;;;5112539;27;20408;-93
2023/05/14 11:40:08;;;;;;;8.55;4.97;;;26.90;51.20;;;;;;5114188;27;20397;-92
2023/05/14 11:42:35;;;;;;;6.28;4.72;;;27.10;51.20;;;;;;5111778;27;20522;-92
2023/05/14 11:45:01;;;;;;;7.57;5.10;;;27.70;50.40;;;;;;5113858;27;20408;-92
2023/05/14 11:47:29;;;;;;;8.23;5.30;;;27.50;49.90;;;;;;5112248;27;20408;-92
2023/05/14 11:49:55;;;;;;;9.82;5.20;;;27.90;47.30;;;;;;5113520;27;20443;-92
2023/05/14 11:52:21;;;;;;;8.68;5.50;;;28.10;47.40;;;;;;5113313;27;20906;-92
2023/05/14 11:54:49;;;;;;;9.70;5.20;;;28.10;45.50;;;;;;5112083;27;20883;-92
2023/05/14 11:57:17;;;;;;;8.85;4.57;;;27.80;46.30;;;;;;5114367;27;20397;-92
2023/05/14 11:59:43;;;;;;;8.88;4.60;;;27.90;49.20;;;;;;5115830;27;20400;-92
2023/05/14 12:02:17;;;;;;;7.18;4.97;;;28.10;48.70;;;;;;5134935;27;20393;-92
2023/05/14 12:04:43;;;;;;;9.63;4.90;;;28.10;46.20;;;;;;5116150;27;20424;-92
2023/05/14 12:07:11;;;;;;;8.73;5.43;;;28.00;47.00;;;;;;5117637;27;20767;-92
2023/05/14 12:09:48;;;;;;;6.55;5.28;;;28.10;46.60;;;;;;5117180;27;20404;-93
2023/05/14 12:12:17;;;;;;;10.93;6.07;;;27.50;48.50;;;;;;5116093;27;20436;-92
2023/05/14 12:14:44;;;;;;;9.05;5.30;;;27.20;50.10;;;;;;5117566;27;20432;-91
2023/05/14 12:17:21;;;;;;;8.20;5.32;;;27.00;53.70;;;;;;5114236;27;20389;-91
2023/05/14 12:19:49;;;;;;;8.95;5.75;;;26.90;46.90;;;;;;5116801;27;20759;-92
2023/05/14 12:22:22;;;;;;;11.52;5.70;;;27.00;50.90;;;;;;5114974;27;20388;-92
2023/05/14 12:24:55;;;;;;;6.97;4.85;;;27.20;50.00;;;;;;5116044;27;20409;-91
2023/05/14 12:27:23;;;;;;;8.05;5.50;;;27.50;52.70;;;;;;5117468;27;20457;-91
2023/05/14 12:29:56;;;;;;;9.70;6.28;;;27.60;47.70;;;;;;5115353;27;20771;-92
2023/05/14 12:32:24;;;;;;;8.50;6.00;;;27.10;46.60;;;;;;5117380;27;20404;-92